UAL328 KLAX-KSFO
Flight info
| Callsign | UAL328 |
|---|---|
| Flight time | 0h 55m |
| Altitude | 36000 |
| Route | SUMMR2 STOKD SERFR SERFR4 |
| Aircraft | A320/M-SDE3FGHIRWY/LB1 |
Departure
| Time | 2026-04-26 17:24 |
|---|---|
| Airport | Los Angeles International Airport (KLAX) |
Arrival
| Time | 2026-04-26 18:20 |
|---|---|
| Airport | San Francisco International Airport (KSFO) |
| Time | Latitude | Longitude | Altitude | Speed | Heading |
|---|---|---|---|---|---|
| 2026-04-26 17:05 | 33.94069 | -118.40013 | 123 ft | 0 kts | 81° |
| 2026-04-26 17:17 | 33.94067 | -118.40035 | 126 ft | 4 kts | 92° |
| 2026-04-26 17:17 | 33.94073 | -118.40065 | 122 ft | 4 kts | 131° |
| 2026-04-26 17:17 | 33.94087 | -118.40076 | 124 ft | 0 kts | 172° |
| 2026-04-26 17:19 | 33.94058 | -118.40072 | 124 ft | 5 kts | 172° |
| 2026-04-26 17:19 | 33.94007 | -118.40064 | 124 ft | 9 kts | 172° |
| 2026-04-26 17:19 | 33.93933 | -118.40053 | 123 ft | 12 kts | 173° |
| 2026-04-26 17:20 | 33.93882 | -118.39975 | 122 ft | 14 kts | 88° |
| 2026-04-26 17:20 | 33.93885 | -118.39934 | 122 ft | 15 kts | 83° |
| 2026-04-26 17:20 | 33.93909 | -118.39697 | 126 ft | 19 kts | 83° |
| 2026-04-26 17:20 | 33.93926 | -118.39528 | 121 ft | 21 kts | 83° |
| 2026-04-26 17:21 | 33.93945 | -118.39343 | 125 ft | 20 kts | 82° |
| 2026-04-26 17:21 | 33.93960 | -118.39202 | 126 ft | 18 kts | 83° |
| 2026-04-26 17:21 | 33.93976 | -118.39054 | 126 ft | 17 kts | 83° |
| 2026-04-26 17:21 | 33.93987 | -118.38937 | 126 ft | 13 kts | 83° |
| 2026-04-26 17:22 | 33.93999 | -118.38818 | 123 ft | 16 kts | 83° |
| 2026-04-26 17:22 | 33.94014 | -118.38679 | 123 ft | 18 kts | 83° |
| 2026-04-26 17:22 | 33.94030 | -118.38519 | 126 ft | 20 kts | 83° |
| 2026-04-26 17:22 | 33.94048 | -118.38342 | 126 ft | 22 kts | 83° |
| 2026-04-26 17:23 | 33.94067 | -118.38153 | 126 ft | 19 kts | 83° |
| 2026-04-26 17:23 | 33.94077 | -118.38031 | 126 ft | 9 kts | 98° |
| 2026-04-26 17:23 | 33.94021 | -118.37997 | 123 ft | 11 kts | 181° |
| 2026-04-26 17:23 | 33.93979 | -118.38072 | 126 ft | 14 kts | 264° |
| 2026-04-26 17:24 | 33.93946 | -118.38401 | 126 ft | 75 kts | 263° |
| 2026-04-26 17:24 | 33.93856 | -118.39275 | 128 ft | 132 kts | 263° |
| 2026-04-26 17:24 | 33.93720 | -118.40495 | 416 ft | 157 kts | 262° |
| 2026-04-26 17:24 | 33.93569 | -118.41835 | 1089 ft | 165 kts | 263° |
| 2026-04-26 17:25 | 33.93427 | -118.43225 | 1840 ft | 169 kts | 263° |
| 2026-04-26 17:25 | 33.93282 | -118.44679 | 2402 ft | 183 kts | 263° |
| 2026-04-26 17:25 | 33.93128 | -118.46293 | 2844 ft | 205 kts | 264° |
| 2026-04-26 17:25 | 33.92977 | -118.48068 | 3522 ft | 220 kts | 266° |
| 2026-04-26 17:26 | 33.92827 | -118.49966 | 4290 ft | 235 kts | 266° |
| 2026-04-26 17:26 | 33.92675 | -118.51972 | 5173 ft | 246 kts | 266° |
| 2026-04-26 17:26 | 33.92508 | -118.54051 | 6130 ft | 252 kts | 265° |
| 2026-04-26 17:26 | 33.92332 | -118.56165 | 7086 ft | 255 kts | 265° |
| 2026-04-26 17:27 | 33.92153 | -118.58304 | 8052 ft | 258 kts | 265° |
| 2026-04-26 17:27 | 33.91973 | -118.60462 | 9014 ft | 261 kts | 265° |
| 2026-04-26 17:27 | 33.91852 | -118.61909 | 9639 ft | 263 kts | 265° |
| 2026-04-26 17:27 | 33.91766 | -118.64129 | 10368 ft | 273 kts | 271° |
| 2026-04-26 17:28 | 33.91762 | -118.66507 | 10725 ft | 293 kts | 271° |
| 2026-04-26 17:28 | 33.91757 | -118.68993 | 11416 ft | 300 kts | 271° |
| 2026-04-26 17:28 | 33.91750 | -118.71520 | 11860 ft | 303 kts | 271° |
| 2026-04-26 17:28 | 33.91741 | -118.74061 | 12003 ft | 303 kts | 271° |
| 2026-04-26 17:29 | 33.91728 | -118.76600 | 12240 ft | 307 kts | 271° |
| 2026-04-26 17:29 | 33.91720 | -118.78309 | 12826 ft | 307 kts | 271° |
| 2026-04-26 17:29 | 33.91702 | -118.81758 | 13953 ft | 309 kts | 271° |
| 2026-04-26 17:29 | 33.91699 | -118.84363 | 14654 ft | 313 kts | 272° |
| 2026-04-26 17:30 | 33.91749 | -118.86994 | 15326 ft | 317 kts | 273° |
| 2026-04-26 17:30 | 33.91833 | -118.89660 | 16006 ft | 321 kts | 273° |
| 2026-04-26 17:30 | 33.91928 | -118.92356 | 16678 ft | 325 kts | 273° |
| 2026-04-26 17:30 | 33.92026 | -118.95089 | 17345 ft | 329 kts | 273° |
| 2026-04-26 17:31 | 33.92121 | -118.97861 | 17987 ft | 334 kts | 273° |
| 2026-04-26 17:31 | 33.92404 | -119.00649 | 18576 ft | 338 kts | 283° |
| 2026-04-26 17:31 | 33.93181 | -119.03332 | 19193 ft | 343 kts | 294° |
| 2026-04-26 17:31 | 33.94389 | -119.05831 | 19837 ft | 347 kts | 300° |
| 2026-04-26 17:32 | 33.95672 | -119.08301 | 20489 ft | 349 kts | 300° |
| 2026-04-26 17:32 | 33.96962 | -119.10788 | 21111 ft | 352 kts | 299° |
| 2026-04-26 17:32 | 33.98260 | -119.13302 | 21715 ft | 355 kts | 299° |
| 2026-04-26 17:32 | 33.99568 | -119.15837 | 22321 ft | 357 kts | 299° |
| 2026-04-26 17:33 | 34.01063 | -119.18256 | 22925 ft | 364 kts | 309° |
| 2026-04-26 17:33 | 34.02954 | -119.20329 | 23535 ft | 372 kts | 320° |
| 2026-04-26 17:33 | 34.05074 | -119.22158 | 24017 ft | 377 kts | 321° |
| 2026-04-26 17:34 | 34.09385 | -119.25854 | 24993 ft | 382 kts | 320° |
| 2026-04-26 17:34 | 34.11561 | -119.27719 | 25489 ft | 385 kts | 320° |
| 2026-04-26 17:34 | 34.13747 | -119.29596 | 25971 ft | 387 kts | 320° |
| 2026-04-26 17:34 | 34.15950 | -119.31489 | 26446 ft | 390 kts | 320° |
| 2026-04-26 17:35 | 34.18168 | -119.33396 | 26905 ft | 392 kts | 320° |
| 2026-04-26 17:35 | 34.20397 | -119.35317 | 27350 ft | 395 kts | 320° |
| 2026-04-26 17:35 | 34.22642 | -119.37256 | 27796 ft | 398 kts | 320° |
| 2026-04-26 17:35 | 34.24901 | -119.39209 | 28217 ft | 401 kts | 320° |
| 2026-04-26 17:36 | 34.27176 | -119.41180 | 28650 ft | 404 kts | 320° |
| 2026-04-26 17:36 | 34.29466 | -119.43165 | 29067 ft | 406 kts | 320° |
| 2026-04-26 17:36 | 34.31771 | -119.45162 | 29485 ft | 409 kts | 320° |
| 2026-04-26 17:36 | 34.34091 | -119.47170 | 29908 ft | 411 kts | 320° |
| 2026-04-26 17:37 | 34.36426 | -119.49194 | 30284 ft | 414 kts | 320° |
| 2026-04-26 17:37 | 34.38773 | -119.51228 | 30638 ft | 417 kts | 320° |
| 2026-04-26 17:37 | 34.41093 | -119.53340 | 31000 ft | 417 kts | 315° |
| 2026-04-26 17:38 | 34.45188 | -119.58253 | 31682 ft | 419 kts | 310° |
| 2026-04-26 17:38 | 34.47262 | -119.60804 | 32136 ft | 419 kts | 310° |
| 2026-04-26 17:38 | 34.49301 | -119.63311 | 32644 ft | 417 kts | 310° |
| 2026-04-26 17:38 | 34.51333 | -119.65811 | 33109 ft | 416 kts | 310° |
| 2026-04-26 17:39 | 34.53363 | -119.68309 | 33604 ft | 415 kts | 309° |
| 2026-04-26 17:39 | 34.55393 | -119.70809 | 34134 ft | 415 kts | 309° |
| 2026-04-26 17:39 | 34.57413 | -119.73299 | 34547 ft | 414 kts | 309° |
| 2026-04-26 17:39 | 34.59431 | -119.75791 | 34934 ft | 414 kts | 309° |
| 2026-04-26 17:40 | 34.61421 | -119.78247 | 35298 ft | 413 kts | 308° |
| 2026-04-26 17:40 | 34.62783 | -119.79930 | 35536 ft | 413 kts | 308° |
| 2026-04-26 17:40 | 34.65450 | -119.83230 | 35937 ft | 414 kts | 308° |
| 2026-04-26 17:40 | 34.67464 | -119.85721 | 35997 ft | 410 kts | 308° |
| 2026-04-26 17:41 | 34.71445 | -119.90644 | 36001 ft | 406 kts | 308° |
| 2026-04-26 17:41 | 34.75402 | -119.95554 | 36012 ft | 408 kts | 309° |
| 2026-04-26 17:42 | 34.79365 | -120.00491 | 36027 ft | 408 kts | 308° |
| 2026-04-26 17:42 | 34.83325 | -120.05436 | 36026 ft | 408 kts | 308° |
| 2026-04-26 17:43 | 34.87293 | -120.10382 | 36029 ft | 408 kts | 308° |
| 2026-04-26 17:43 | 34.91263 | -120.15332 | 36043 ft | 409 kts | 309° |
| 2026-04-26 17:44 | 34.95234 | -120.20299 | 36039 ft | 409 kts | 309° |
| 2026-04-26 17:44 | 34.99211 | -120.25273 | 36038 ft | 410 kts | 309° |
| 2026-04-26 17:45 | 35.03212 | -120.30298 | 36042 ft | 410 kts | 309° |
| 2026-04-26 17:45 | 35.07157 | -120.35259 | 36052 ft | 410 kts | 309° |
| 2026-04-26 17:46 | 35.11215 | -120.40191 | 36044 ft | 412 kts | 312° |
| 2026-04-26 17:46 | 35.15473 | -120.44908 | 36038 ft | 414 kts | 313° |
| 2026-04-26 17:47 | 35.19068 | -120.48836 | 36042 ft | 414 kts | 313° |
| 2026-04-26 17:47 | 35.24015 | -120.54337 | 36067 ft | 414 kts | 313° |
| 2026-04-26 17:48 | 35.28247 | -120.59110 | 36057 ft | 414 kts | 313° |
| 2026-04-26 17:48 | 35.32480 | -120.63883 | 36053 ft | 414 kts | 313° |
| 2026-04-26 17:49 | 35.36720 | -120.68662 | 36048 ft | 414 kts | 313° |
| 2026-04-26 17:49 | 35.40956 | -120.73446 | 36056 ft | 414 kts | 313° |
| 2026-04-26 17:50 | 35.45189 | -120.78237 | 36044 ft | 414 kts | 313° |
| 2026-04-26 17:50 | 35.49514 | -120.82910 | 36049 ft | 417 kts | 319° |
| 2026-04-26 17:51 | 35.54147 | -120.87192 | 36047 ft | 417 kts | 319° |
| 2026-04-26 17:51 | 35.58774 | -120.91480 | 36062 ft | 417 kts | 319° |
| 2026-04-26 17:52 | 35.63402 | -120.95778 | 36031 ft | 417 kts | 319° |
| 2026-04-26 17:52 | 35.68019 | -121.00076 | 36024 ft | 416 kts | 319° |
| 2026-04-26 17:53 | 35.72636 | -121.04383 | 36005 ft | 418 kts | 319° |
| 2026-04-26 17:53 | 35.74959 | -121.06557 | 35769 ft | 418 kts | 319° |
| 2026-04-26 17:54 | 35.79575 | -121.10863 | 35285 ft | 414 kts | 319° |
| 2026-04-26 17:54 | 35.81859 | -121.12999 | 35041 ft | 412 kts | 319° |
| 2026-04-26 17:54 | 35.84135 | -121.15130 | 34801 ft | 409 kts | 319° |
| 2026-04-26 17:54 | 35.86397 | -121.17246 | 34568 ft | 407 kts | 319° |
| 2026-04-26 17:55 | 35.88641 | -121.19351 | 34331 ft | 405 kts | 319° |
| 2026-04-26 17:55 | 35.90876 | -121.21450 | 34115 ft | 403 kts | 319° |
| 2026-04-26 17:55 | 35.93094 | -121.23531 | 33860 ft | 399 kts | 319° |
| 2026-04-26 17:55 | 35.95301 | -121.25600 | 33572 ft | 397 kts | 319° |
| 2026-04-26 17:56 | 35.97489 | -121.27652 | 33305 ft | 394 kts | 319° |
| 2026-04-26 17:56 | 36.01828 | -121.31735 | 32760 ft | 390 kts | 319° |
| 2026-04-26 17:57 | 36.06109 | -121.35781 | 32231 ft | 386 kts | 320° |
| 2026-04-26 17:57 | 36.08336 | -121.37637 | 31986 ft | 386 kts | 324° |
| 2026-04-26 17:57 | 36.10601 | -121.39392 | 31727 ft | 383 kts | 324° |
| 2026-04-26 17:57 | 36.12850 | -121.41141 | 31478 ft | 380 kts | 324° |
| 2026-04-26 17:58 | 36.19484 | -121.46330 | 30251 ft | 373 kts | 325° |
| 2026-04-26 17:59 | 36.23851 | -121.49744 | 29386 ft | 368 kts | 325° |
| 2026-04-26 17:59 | 36.26003 | -121.51427 | 28981 ft | 364 kts | 325° |
| 2026-04-26 17:59 | 36.28128 | -121.53091 | 28609 ft | 360 kts | 325° |
| 2026-04-26 17:59 | 36.30238 | -121.54746 | 28230 ft | 357 kts | 325° |
| 2026-04-26 18:00 | 36.32328 | -121.56387 | 27851 ft | 354 kts | 325° |
| 2026-04-26 18:00 | 36.34406 | -121.58015 | 27450 ft | 352 kts | 325° |
| 2026-04-26 18:00 | 36.36469 | -121.59631 | 27072 ft | 349 kts | 325° |
| 2026-04-26 18:00 | 36.38516 | -121.61235 | 26679 ft | 347 kts | 325° |
| 2026-04-26 18:01 | 36.40552 | -121.62833 | 26280 ft | 345 kts | 325° |
| 2026-04-26 18:01 | 36.42576 | -121.64427 | 25902 ft | 343 kts | 325° |
| 2026-04-26 18:01 | 36.44589 | -121.66011 | 25478 ft | 342 kts | 325° |
| 2026-04-26 18:01 | 36.46595 | -121.67588 | 25059 ft | 340 kts | 324° |
| 2026-04-26 18:02 | 36.48564 | -121.69142 | 24640 ft | 339 kts | 324° |
| 2026-04-26 18:02 | 36.49236 | -121.69675 | 24500 ft | 339 kts | 324° |
| 2026-04-26 18:02 | 36.52531 | -121.72281 | 23814 ft | 337 kts | 324° |
| 2026-04-26 18:02 | 36.54506 | -121.73842 | 23352 ft | 336 kts | 324° |
| 2026-04-26 18:03 | 36.56471 | -121.75398 | 22912 ft | 333 kts | 324° |
| 2026-04-26 18:03 | 36.58418 | -121.76941 | 22497 ft | 331 kts | 324° |
| 2026-04-26 18:03 | 36.60352 | -121.78472 | 22085 ft | 328 kts | 324° |
| 2026-04-26 18:03 | 36.62276 | -121.79992 | 21651 ft | 326 kts | 324° |
| 2026-04-26 18:04 | 36.64185 | -121.81501 | 21236 ft | 324 kts | 324° |
| 2026-04-26 18:04 | 36.66080 | -121.83003 | 20823 ft | 322 kts | 324° |
| 2026-04-26 18:04 | 36.67968 | -121.84502 | 20393 ft | 321 kts | 324° |
| 2026-04-26 18:05 | 36.71717 | -121.87479 | 19583 ft | 318 kts | 324° |
| 2026-04-26 18:05 | 36.73626 | -121.88870 | 19176 ft | 319 kts | 331° |
| 2026-04-26 18:05 | 36.75707 | -121.89843 | 18750 ft | 322 kts | 341° |
| 2026-04-26 18:05 | 36.77892 | -121.90468 | 18381 ft | 320 kts | 343° |
| 2026-04-26 18:06 | 36.80068 | -121.91070 | 17901 ft | 320 kts | 343° |
| 2026-04-26 18:06 | 36.82230 | -121.91670 | 17478 ft | 318 kts | 343° |
| 2026-04-26 18:06 | 36.84384 | -121.92270 | 17090 ft | 315 kts | 343° |
| 2026-04-26 18:06 | 36.86523 | -121.92867 | 16631 ft | 315 kts | 343° |
| 2026-04-26 18:07 | 36.88648 | -121.93461 | 16166 ft | 314 kts | 343° |
| 2026-04-26 18:07 | 36.90770 | -121.94055 | 15851 ft | 310 kts | 344° |
| 2026-04-26 18:07 | 36.92866 | -121.94640 | 15455 ft | 308 kts | 344° |
| 2026-04-26 18:07 | 36.93572 | -121.94837 | 15318 ft | 308 kts | 344° |
| 2026-04-26 18:08 | 36.97010 | -121.95902 | 14725 ft | 305 kts | 341° |
| 2026-04-26 18:08 | 36.99031 | -121.96671 | 14365 ft | 302 kts | 340° |
| 2026-04-26 18:08 | 37.01032 | -121.97480 | 14006 ft | 301 kts | 339° |
| 2026-04-26 18:08 | 37.03020 | -121.98293 | 13656 ft | 300 kts | 339° |
| 2026-04-26 18:09 | 37.05003 | -121.99097 | 13270 ft | 298 kts | 340° |
| 2026-04-26 18:09 | 37.06980 | -121.99887 | 12861 ft | 297 kts | 340° |
| 2026-04-26 18:09 | 37.08931 | -122.00658 | 12200 ft | 293 kts | 340° |
| 2026-04-26 18:09 | 37.10842 | -122.01410 | 11561 ft | 291 kts | 340° |
| 2026-04-26 18:10 | 37.12807 | -122.02181 | 11126 ft | 293 kts | 340° |
| 2026-04-26 18:10 | 37.14711 | -122.02925 | 10806 ft | 289 kts | 340° |
| 2026-04-26 18:10 | 37.16642 | -122.03678 | 10441 ft | 289 kts | 340° |
| 2026-04-26 18:10 | 37.17945 | -122.04186 | 10117 ft | 292 kts | 340° |
| 2026-04-26 18:11 | 37.19856 | -122.04933 | 9975 ft | 284 kts | 340° |
| 2026-04-26 18:11 | 37.21717 | -122.05662 | 9766 ft | 277 kts | 341° |
| 2026-04-26 18:11 | 37.23541 | -122.06376 | 9117 ft | 274 kts | 340° |
| 2026-04-26 18:11 | 37.25354 | -122.07088 | 8542 ft | 271 kts | 340° |
| 2026-04-26 18:12 | 37.27708 | -122.08016 | 8035 ft | 265 kts | 340° |
| 2026-04-26 18:12 | 37.28893 | -122.08484 | 7793 ft | 264 kts | 339° |
| 2026-04-26 18:12 | 37.30650 | -122.09180 | 7437 ft | 268 kts | 339° |
| 2026-04-26 18:12 | 37.32432 | -122.09885 | 7164 ft | 267 kts | 339° |
| 2026-04-26 18:13 | 37.34218 | -122.10588 | 6754 ft | 271 kts | 340° |
| 2026-04-26 18:13 | 37.36006 | -122.11290 | 6438 ft | 269 kts | 339° |
| 2026-04-26 18:13 | 37.37799 | -122.11993 | 6055 ft | 269 kts | 340° |
| 2026-04-26 18:13 | 37.38983 | -122.12426 | 5866 ft | 267 kts | 341° |
| 2026-04-26 18:14 | 37.41381 | -122.13236 | 5414 ft | 266 kts | 342° |
| 2026-04-26 18:14 | 37.43168 | -122.13819 | 5019 ft | 267 kts | 342° |
| 2026-04-26 18:14 | 37.45018 | -122.14422 | 4259 ft | 282 kts | 342° |
| 2026-04-26 18:14 | 37.46943 | -122.15055 | 3651 ft | 284 kts | 342° |
| 2026-04-26 18:15 | 37.48778 | -122.15657 | 3466 ft | 261 kts | 342° |
| 2026-04-26 18:15 | 37.50460 | -122.16212 | 3344 ft | 239 kts | 340° |
| 2026-04-26 18:15 | 37.51993 | -122.16729 | 3249 ft | 219 kts | 338° |
| 2026-04-26 18:15 | 37.53292 | -122.17564 | 3160 ft | 202 kts | 319° |
| 2026-04-26 18:16 | 37.54212 | -122.18798 | 3063 ft | 187 kts | 300° |
| 2026-04-26 18:16 | 37.55395 | -122.21556 | 2586 ft | 171 kts | 296° |
| 2026-04-26 18:16 | 37.55932 | -122.22827 | 2374 ft | 154 kts | 295° |
| 2026-04-26 18:17 | 37.56415 | -122.23974 | 2167 ft | 144 kts | 295° |
| 2026-04-26 18:17 | 37.56873 | -122.25062 | 1980 ft | 141 kts | 295° |
| 2026-04-26 18:17 | 37.57340 | -122.26171 | 1764 ft | 142 kts | 295° |
| 2026-04-26 18:17 | 37.57792 | -122.27243 | 1573 ft | 140 kts | 296° |
| 2026-04-26 18:18 | 37.58248 | -122.28329 | 1387 ft | 140 kts | 296° |
| 2026-04-26 18:18 | 37.58704 | -122.29408 | 1191 ft | 139 kts | 296° |
| 2026-04-26 18:18 | 37.59156 | -122.30481 | 1021 ft | 137 kts | 296° |
| 2026-04-26 18:18 | 37.59599 | -122.31540 | 826 ft | 137 kts | 297° |
| 2026-04-26 18:19 | 37.60044 | -122.32598 | 664 ft | 136 kts | 298° |
| 2026-04-26 18:19 | 37.60481 | -122.33642 | 454 ft | 133 kts | 298° |
| 2026-04-26 18:19 | 37.60909 | -122.34658 | 268 ft | 130 kts | 299° |
| 2026-04-26 18:19 | 37.61337 | -122.35685 | 103 ft | 133 kts | 299° |
| 2026-04-26 18:20 | 37.61764 | -122.36691 | 27 ft | 120 kts | 300° |
| 2026-04-26 18:20 | 37.62080 | -122.37442 | 17 ft | 72 kts | 298° |
| 2026-04-26 18:20 | 37.62248 | -122.37848 | 21 ft | 44 kts | 298° |
| 2026-04-26 18:20 | 37.62325 | -122.38044 | 22 ft | 34 kts | 289° |
| 2026-04-26 18:21 | 37.62263 | -122.38266 | 23 ft | 16 kts | 207° |
| 2026-04-26 18:21 | 37.62147 | -122.38314 | 22 ft | 19 kts | 197° |
| 2026-04-26 18:21 | 37.62052 | -122.38360 | 23 ft | 11 kts | 226° |
| 2026-04-26 18:21 | 37.62070 | -122.38451 | 20 ft | 12 kts | 299° |
| 2026-04-26 18:22 | 37.62091 | -122.38545 | 19 ft | 9 kts | 238° |
| 2026-04-26 18:22 | 37.62042 | -122.38579 | 18 ft | 3 kts | 208° |
| 2026-04-26 18:22 | 37.62040 | -122.38613 | 17 ft | 4 kts | 295° |
| 2026-04-26 18:22 | 37.62051 | -122.38644 | 17 ft | 2 kts | 296° |
| 2026-04-26 18:23 | 37.62054 | -122.38650 | 17 ft | 1 kts | 296° |
| 2026-04-26 18:23 | 37.62054 | -122.38651 | 17 ft | 0 kts | 296° |